Time;durP1;ratioP1;P1;durP2;ratioP2;P2;SDS_P1;SDS_P2;PMS_P1;PMS_P2;Temp;Humidity;BMP_temperature;BMP_pressure;BME280_temperature;BME280_humidity;BME280_pressure;Samples;Min_cycle;Max_cycle;Signal;HPM_P1;HPM_P2
2023/11/18 00:02:25;;;;;;;3.60;2.05;;;;;;;10.30;91.53;98692.25;5114425;28;20384;-39
2023/11/18 00:04:51;;;;;;;3.15;1.80;;;;;;;10.34;91.17;98685.44;5114470;28;20047;-40
2023/11/18 00:07:17;;;;;;;3.97;2.30;;;;;;;10.51;89.81;98709.53;5113971;28;20102;-39
2023/11/18 00:09:45;;;;;;;4.72;2.00;;;;;;;10.59;89.76;98704.94;5113988;28;20181;-39
2023/11/18 00:12:11;;;;;;;2.38;1.95;;;;;;;10.45;89.30;98710.47;5113939;28;20034;-38
2023/11/18 00:14:37;;;;;;;2.50;1.80;;;;;;;10.63;89.58;98698.13;5114141;28;20027;-39
2023/11/18 00:17:04;;;;;;;2.67;1.98;;;;;;;10.81;88.79;98703.31;5114101;28;20040;-39
2023/11/18 00:19:29;;;;;;;2.72;1.67;;;;;;;10.87;87.67;98715.72;5113581;28;20066;-39
2023/11/18 00:21:55;;;;;;;2.60;1.80;;;;;;;10.82;87.10;98707.63;5113804;28;20055;-39
2023/11/18 00:24:21;;;;;;;2.00;1.45;;;;;;;10.69;87.50;98716.63;5113773;28;20106;-39
2023/11/18 00:26:46;;;;;;;1.98;1.60;;;;;;;10.67;86.94;98708.06;5114154;28;20042;-39
2023/11/18 00:29:11;;;;;;;4.25;1.70;;;;;;;10.64;87.37;98705.88;5123708;27;20125;-39
2023/11/18 00:31:37;;;;;;;1.63;1.30;;;;;;;10.63;86.47;98709.56;5134149;27;20065;-39
2023/11/18 00:34:03;;;;;;;2.00;1.52;;;;;;;10.63;87.00;98706.09;5133721;27;20046;-39
2023/11/18 00:36:29;;;;;;;1.75;1.38;;;;;;;10.74;87.12;98702.66;5133727;27;20023;-39
2023/11/18 00:38:54;;;;;;;2.10;1.35;;;;;;;10.73;86.77;98706.34;5133798;27;20022;-40
2023/11/18 00:41:19;;;;;;;2.45;1.50;;;;;;;10.79;86.51;98702.75;5114245;27;20077;-40
2023/11/18 00:43:45;;;;;;;2.53;1.17;;;;;;;10.71;87.75;98697.78;5113269;28;20059;-40
2023/11/18 00:46:10;;;;;;;2.60;1.50;;;;;;;10.69;86.48;98690.00;5113547;28;20070;-40
2023/11/18 00:48:36;;;;;;;2.40;1.50;;;;;;;10.82;86.18;98696.97;5112848;28;20036;-39
2023/11/18 00:51:01;;;;;;;1.85;1.52;;;;;;;10.88;85.33;98706.69;5113297;28;20100;-40
2023/11/18 00:53:27;;;;;;;3.05;1.45;;;;;;;10.67;85.54;98710.72;5113100;28;20024;-40
2023/11/18 00:55:52;;;;;;;2.13;1.55;;;;;;;10.73;85.61;98698.34;5113099;28;20092;-38
2023/11/18 00:58:18;;;;;;;2.42;1.90;;;;;;;10.57;86.79;98705.16;5112987;28;20065;-40
2023/11/18 01:00:43;;;;;;;2.17;1.70;;;;;;;10.56;87.63;98722.94;5113094;28;20019;-40
2023/11/18 01:03:10;;;;;;;2.65;1.80;;;;;;;10.58;87.13;98722.72;5113086;28;20043;-40
2023/11/18 01:05:35;;;;;;;2.38;1.77;;;;;;;10.51;88.52;98727.34;5112748;28;20051;-40
2023/11/18 01:08:00;;;;;;;1.88;1.67;;;;;;;10.62;87.21;98723.88;5112698;28;20047;-37
2023/11/18 01:10:27;;;;;;;3.45;2.33;;;;;;;10.42;88.90;98728.72;5112793;27;20482;-40
2023/11/18 01:12:55;;;;;;;2.72;2.08;;;;;;;10.38;88.57;98728.34;5112883;28;20024;-39
2023/11/18 01:15:20;;;;;;;3.55;2.10;;;;;;;10.55;88.41;98726.66;5112901;28;20024;-40
2023/11/18 01:17:46;;;;;;;2.60;2.15;;;;;;;10.45;89.35;98739.72;5112520;28;20015;-38
2023/11/18 01:20:13;;;;;;;3.83;2.20;;;;;;;10.34;89.28;98738.63;5112445;28;20027;-40
2023/11/18 01:22:39;;;;;;;2.55;2.30;;;;;;;10.61;87.99;98745.44;5112441;28;20028;-40
2023/11/18 01:25:06;;;;;;;3.20;2.50;;;;;;;10.28;87.09;98746.66;5111729;28;20019;-40
2023/11/18 01:27:33;;;;;;;3.00;2.30;;;;;;;10.34;87.56;98743.16;5112213;28;20488;-40
2023/11/18 01:29:59;;;;;;;2.90;2.45;;;;;;;10.31;86.58;98747.06;5112455;28;20023;-39
2023/11/18 01:32:25;;;;;;;5.30;2.40;;;;;;;10.44;86.09;98754.03;5112247;28;20076;-38
2023/11/18 01:34:51;;;;;;;2.83;2.30;;;;;;;10.27;86.07;98764.47;5112501;28;20026;-38
2023/11/18 01:37:16;;;;;;;2.85;2.17;;;;;;;9.97;85.39;98765.25;5112319;28;20399;-40
2023/11/18 01:39:42;;;;;;;2.65;2.05;;;;;;;9.99;84.64;98754.41;5111659;28;20153;-40
2023/11/18 01:42:08;;;;;;;1.92;1.70;;;;;;;10.02;84.69;98753.97;5112213;28;20023;-40
2023/11/18 01:44:35;;;;;;;2.20;1.70;;;;;;;10.01;85.88;98754.97;5112173;28;20030;-40
2023/11/18 01:47:05;;;;;;;1.95;1.60;;;;;;;10.27;83.84;98745.06;5111790;28;20122;-40
2023/11/18 01:49:36;;;;;;;2.20;1.83;;;;;;;10.36;83.93;98752.50;5111639;28;20123;-39
2023/11/18 01:52:02;;;;;;;1.67;1.55;;;;;;;9.97;84.94;98764.44;5112290;28;20027;-39
2023/11/18 01:54:28;;;;;;;2.35;1.80;;;;;;;10.20;83.17;98762.94;5111929;28;20026;-40
2023/11/18 01:56:55;;;;;;;1.42;1.30;;;;;;;9.66;83.94;98762.78;5111786;28;20024;-40
2023/11/18 01:59:20;;;;;;;1.85;1.42;;;;;;;9.54;84.18;98760.03;5111949;28;20424;-39
2023/11/18 02:01:51;;;;;;;1.65;1.40;;;;;;;9.57;83.68;98763.03;5111844;28;20046;-39
2023/11/18 02:04:19;;;;;;;1.60;1.27;;;;;;;9.54;83.70;98749.41;5111748;28;20138;-39
2023/11/18 02:06:44;;;;;;;1.63;1.30;;;;;;;9.83;84.05;98758.47;5111835;28;20016;-38
2023/11/18 02:09:11;;;;;;;1.83;1.55;;;;;;;9.46;85.22;98752.34;5111711;28;20019;-39
2023/11/18 02:11:42;;;;;;;3.53;1.30;;;;;;;9.22;84.59;98730.13;5111623;28;20528;-40
2023/11/18 02:14:13;;;;;;;1.52;1.20;;;;;;;9.55;83.35;98764.31;5111708;28;20023;-39
2023/11/18 02:16:40;;;;;;;1.48;1.10;;;;;;;9.34;84.72;98766.34;5111772;28;20395;-39
2023/11/18 02:19:20;;;;;;;1.27;1.02;;;;;;;9.34;84.65;98768.19;5111295;28;20043;-39
2023/11/18 02:21:46;;;;;;;1.52;1.20;;;;;;;9.61;83.91;98775.91;5111457;28;20034;-39
2023/11/18 02:24:36;;;;;;;1.90;1.15;;;;;;;9.78;83.62;98785.69;5111450;28;20037;-39
2023/11/18 02:27:05;;;;;;;2.22;1.30;;;;;;;9.58;84.15;98777.97;5111495;28;20051;-39
2023/11/18 02:29:41;;;;;;;1.83;1.25;;;;;;;9.34;85.49;98770.84;5111559;28;20487;-39
2023/11/18 02:32:16;;;;;;;1.95;1.17;;;;;;;9.43;84.92;98782.00;5111381;28;20024;-39
2023/11/18 02:34:51;;;;;;;1.60;1.20;;;;;;;9.36;84.68;98779.41;5111692;28;20062;-38
2023/11/18 02:37:17;;;;;;;1.73;1.17;;;;;;;9.56;83.84;98780.03;5112220;28;20031;-39
2023/11/18 02:39:45;;;;;;;1.20;0.82;;;;;;;9.56;84.36;98774.72;5111529;28;20035;-39
2023/11/18 02:42:12;;;;;;;1.15;1.05;;;;;;;9.20;84.35;98778.13;5111368;28;20039;-39
2023/11/18 02:44:38;;;;;;;1.13;1.00;;;;;;;8.96;85.39;98785.06;5111465;28;20030;-39
2023/11/18 02:47:07;;;;;;;0.95;0.90;;;;;;;9.16;85.74;98793.69;5111326;28;20175;-39
2023/11/18 02:49:35;;;;;;;1.58;1.00;;;;;;;8.65;87.76;98789.38;5111518;28;20031;-38
2023/11/18 02:52:00;;;;;;;0.93;0.80;;;;;;;8.96;86.51;98782.41;5111172;28;20019;-39
2023/11/18 02:54:26;;;;;;;0.80;0.60;;;;;;;8.71;86.81;98777.09;5111628;28;20040;-39
2023/11/18 02:56:51;;;;;;;3.55;1.13;;;;;;;8.89;86.96;98785.13;5111655;28;20535;-39
2023/11/18 02:59:17;;;;;;;1.95;1.02;;;;;;;8.79;86.25;98790.06;5111627;28;20156;-39
2023/11/18 03:01:43;;;;;;;1.13;0.73;;;;;;;8.75;85.53;98783.59;5112631;28;20023;-39
2023/11/18 03:04:08;;;;;;;1.92;0.90;;;;;;;8.66;86.44;98792.81;5115757;28;20130;-40
2023/11/18 03:06:35;;;;;;;0.68;0.60;;;;;;;8.36;86.46;98783.59;5115419;28;20034;-37
2023/11/18 03:09:01;;;;;;;1.25;0.95;;;;;;;8.41;86.64;98782.94;5115159;28;20182;-39
2023/11/18 03:11:29;;;;;;;0.98;0.70;;;;;;;8.37;87.56;98785.19;5115259;28;20467;-39
2023/11/18 03:13:56;;;;;;;0.80;0.80;;;;;;;8.38;87.18;98780.72;5115349;28;20364;-39
2023/11/18 03:16:22;;;;;;;2.53;0.90;;;;;;;7.88;89.05;98769.94;5115279;28;20475;-38
2023/11/18 03:18:48;;;;;;;0.88;0.80;;;;;;;8.23;87.99;98768.56;5114989;28;20019;-39
2023/11/18 03:21:14;;;;;;;1.27;0.73;;;;;;;8.00;89.13;98774.38;5114770;28;20034;-37
2023/11/18 03:23:42;;;;;;;0.88;0.70;;;;;;;7.93;88.43;98776.22;5115038;28;20387;-39
2023/11/18 03:26:10;;;;;;;0.60;0.60;;;;;;;7.93;87.70;98786.03;5114951;28;20451;-39
2023/11/18 03:28:36;;;;;;;0.93;0.80;;;;;;;7.70;89.23;98736.19;5114811;28;20020;-39
2023/11/18 03:31:04;;;;;;;1.15;0.98;;;;;;;7.99;88.31;98778.03;5115276;28;20020;-39
2023/11/18 03:33:29;;;;;;;1.65;1.00;;;;;;;8.17;87.76;98769.41;5114629;28;20027;-38
2023/11/18 03:35:55;;;;;;;1.15;1.05;;;;;;;7.90;87.28;98774.03;5114572;28;20038;-41
2023/11/18 03:38:21;;;;;;;1.27;0.90;;;;;;;7.73;89.00;98776.31;5114525;28;20018;-38
2023/11/18 03:40:47;;;;;;;1.23;0.80;;;;;;;7.49;88.30;98769.03;5114576;28;20099;-38
2023/11/18 03:43:13;;;;;;;1.98;0.90;;;;;;;7.69;88.08;98788.34;5114655;28;20019;-39
2023/11/18 03:45:42;;;;;;;0.75;0.75;;;;;;;7.41;86.87;98786.75;5114307;28;20019;-36
2023/11/18 03:48:07;;;;;;;1.07;0.90;;;;;;;7.51;86.46;98788.97;5113870;28;20036;-39
2023/11/18 03:50:34;;;;;;;0.80;0.80;;;;;;;7.39;86.19;98780.88;5113711;28;20110;-38
2023/11/18 03:52:59;;;;;;;1.00;0.95;;;;;;;7.54;85.78;98787.75;5114356;28;20048;-39
2023/11/18 03:55:28;;;;;;;1.27;1.10;;;;;;;7.47;85.38;98792.25;5114161;28;20051;-36
2023/11/18 03:57:53;;;;;;;1.85;1.20;;;;;;;7.53;84.88;98788.78;5113748;28;20488;-40
2023/11/18 04:00:19;;;;;;;2.08;1.27;;;;;;;7.51;84.54;98788.97;5114029;28;20027;-39
2023/11/18 04:02:46;;;;;;;1.02;0.85;;;;;;;7.34;84.56;98783.31;5114139;28;20135;-39
2023/11/18 04:05:12;;;;;;;1.40;1.08;;;;;;;7.29;85.05;98775.19;5114031;28;20026;-38
2023/11/18 04:07:38;;;;;;;1.95;1.02;;;;;;;7.27;85.07;98766.63;5113894;28;20023;-39
2023/11/18 04:10:06;;;;;;;1.55;1.25;;;;;;;7.39;84.00;98772.13;5113980;28;20019;-39
2023/11/18 04:12:31;;;;;;;1.30;1.10;;;;;;;7.19;84.51;98772.94;5113405;28;20031;-40
2023/11/18 04:14:57;;;;;;;0.90;0.90;;;;;;;7.14;85.50;98763.97;5114056;28;20024;-40
2023/11/18 04:17:22;;;;;;;0.80;0.80;;;;;;;7.19;82.95;98772.13;5113634;28;20020;-40
2023/11/18 04:19:48;;;;;;;1.08;0.88;;;;;;;7.16;83.43;98769.88;5113445;28;20648;-40
2023/11/18 04:22:13;;;;;;;1.10;0.98;;;;;;;7.41;81.62;98773.53;5094757;28;20027;-40
2023/11/18 04:24:39;;;;;;;4.05;1.02;;;;;;;7.58;81.93;98757.22;5114011;28;20023;-40
2023/11/18 04:27:04;;;;;;;1.40;1.00;;;;;;;7.37;81.16;98755.63;5113528;28;20012;-40
2023/11/18 04:29:30;;;;;;;2.35;1.05;;;;;;;7.41;81.74;98770.06;5095122;28;20043;-39
2023/11/18 04:31:55;;;;;;;1.25;1.10;;;;;;;7.27;82.28;98771.09;5112430;28;20031;-39
2023/11/18 04:34:20;;;;;;;1.52;1.15;;;;;;;7.31;82.29;98785.53;5113007;28;20069;-40
2023/11/18 04:36:46;;;;;;;1.15;1.05;;;;;;;7.20;80.01;98782.50;5113085;28;20023;-39
2023/11/18 04:39:11;;;;;;;1.38;1.10;;;;;;;7.30;80.34;98763.56;5112917;28;20033;-36
2023/11/18 04:41:37;;;;;;;1.38;1.20;;;;;;;7.22;80.15;98764.59;5112754;28;20042;-39
2023/11/18 04:44:03;;;;;;;3.03;1.33;;;;;;;7.26;78.82;98764.19;5113372;28;20028;-38
2023/11/18 04:46:28;;;;;;;2.55;1.40;;;;;;;7.12;79.25;98768.66;5115136;27;20027;-38
2023/11/18 04:48:54;;;;;;;1.83;1.30;;;;;;;6.95;79.39;98769.09;5113050;27;20040;-38
2023/11/18 04:51:22;;;;;;;1.95;1.35;;;;;;;7.09;78.64;98790.25;5122982;27;20502;-39
2023/11/18 04:53:48;;;;;;;1.48;1.30;;;;;;;7.00;78.56;98808.97;5131718;27;20458;-38
2023/11/18 04:56:16;;;;;;;1.92;1.67;;;;;;;6.91;77.98;98802.28;5131192;27;20029;-39
2023/11/18 04:58:42;;;;;;;2.20;1.65;;;;;;;6.92;77.63;98800.44;5131725;27;20023;-36
2023/11/18 05:01:08;;;;;;;1.80;1.50;;;;;;;7.00;77.49;98795.72;5124723;27;20019;-38
2023/11/18 05:03:34;;;;;;;2.05;1.80;;;;;;;6.92;77.41;98774.78;5117880;27;20028;-39
2023/11/18 05:05:59;;;;;;;1.90;1.55;;;;;;;6.90;77.11;98790.03;5113160;28;20026;-39
2023/11/18 05:08:25;;;;;;;3.50;1.80;;;;;;;6.80;77.15;98787.81;5132077;27;20106;-39
2023/11/18 05:10:51;;;;;;;2.13;1.77;;;;;;;6.82;77.03;98784.97;5134206;27;20018;-40
2023/11/18 05:13:18;;;;;;;2.30;1.95;;;;;;;7.08;74.84;98791.25;5133962;27;20111;-40
2023/11/18 05:15:47;;;;;;;2.53;1.95;;;;;;;6.77;76.19;98777.63;5126855;27;20024;-40
2023/11/18 05:18:16;;;;;;;2.88;2.17;;;;;;;6.75;75.83;98782.28;5127082;27;20023;-40
2023/11/18 05:20:42;;;;;;;2.10;1.52;;;;;;;6.80;73.68;98787.00;5113788;27;20055;-40
2023/11/18 05:23:11;;;;;;;5.20;2.10;;;;;;;7.08;73.52;98801.84;5122942;27;20023;-40
2023/11/18 05:25:39;;;;;;;2.67;1.85;;;;;;;6.84;73.42;98790.88;5127267;27;20023;-39
2023/11/18 05:28:05;;;;;;;3.55;2.20;;;;;;;6.90;73.40;98776.81;5113255;28;20028;-41
2023/11/18 05:30:31;;;;;;;2.58;2.20;;;;;;;6.92;72.76;98774.78;5113386;27;20023;-40
2023/11/18 05:32:58;;;;;;;2.67;2.20;;;;;;;6.73;73.01;98760.53;5121200;27;20027;-39
2023/11/18 05:35:28;;;;;;;3.35;2.20;;;;;;;6.75;72.02;98774.38;5124558;27;20035;-40
2023/11/18 05:37:54;;;;;;;;;;;;;;;6.87;72.51;98787.00;5134004;27;20099;-41
2023/11/18 05:40:20;;;;;;;2.95;2.20;;;;;;;6.73;72.31;98797.56;5133103;27;20009;-40
2023/11/18 05:42:48;;;;;;;2.30;2.00;;;;;;;6.79;71.64;98802.03;5122375;27;20538;-38
2023/11/18 05:45:27;;;;;;;2.40;2.10;;;;;;;6.67;72.13;98814.22;5122584;27;20061;-38
2023/11/18 05:47:54;;;;;;;3.17;2.58;;;;;;;7.01;71.21;98815.09;5129814;27;20074;-39
2023/11/18 05:50:20;;;;;;;2.72;2.28;;;;;;;7.28;69.18;98823.03;5133393;27;20132;-39
2023/11/18 05:52:45;;;;;;;5.00;2.47;;;;;;;7.19;68.96;98833.00;5133289;27;20475;-39
2023/11/18 05:55:10;;;;;;;2.50;2.10;;;;;;;7.16;68.74;98838.69;5133056;27;20531;-40
2023/11/18 05:57:36;;;;;;;3.55;2.45;;;;;;;7.21;67.68;98838.88;5132864;27;20015;-38
2023/11/18 06:00:01;;;;;;;2.85;2.40;;;;;;;7.40;67.30;98824.03;5131991;27;20062;-40
2023/11/18 06:02:27;;;;;;;6.80;2.17;;;;;;;7.15;67.21;98811.41;5108143;28;20034;-39
2023/11/18 06:04:54;;;;;;;2.72;2.17;;;;;;;7.22;67.23;98806.13;5107483;27;20015;-39
2023/11/18 06:07:19;;;;;;;3.42;2.53;;;;;;;7.47;66.25;98831.97;5120585;27;20068;-38
2023/11/18 06:09:46;;;;;;;3.10;2.50;;;;;;;7.47;65.77;98835.44;5121903;27;20015;-40
2023/11/18 06:12:12;;;;;;;7.10;2.05;;;;;;;7.21;66.14;98849.47;5121043;27;20026;-40
2023/11/18 06:14:38;;;;;;;3.20;2.55;;;;;;;7.42;66.13;98854.59;5118306;27;20100;-40
2023/11/18 06:17:04;;;;;;;4.65;2.65;;;;;;;7.55;65.57;98868.81;5119457;27;20080;-36
2023/11/18 06:19:29;;;;;;;3.15;2.70;;;;;;;7.51;65.81;98860.47;5120858;27;20466;-39
2023/11/18 06:21:55;;;;;;;3.53;2.30;;;;;;;7.37;66.12;98850.91;5118562;27;20019;-41
2023/11/18 06:24:21;;;;;;;3.13;2.70;;;;;;;7.43;64.90;98853.56;5118209;27;20043;-40
2023/11/18 06:26:49;;;;;;;3.25;2.50;;;;;;;7.22;65.88;98844.00;5127985;27;20031;-39
2023/11/18 06:29:15;;;;;;;2.97;2.28;;;;;;;7.20;66.08;98834.63;5131907;27;20090;-40
2023/11/18 06:31:41;;;;;;;3.67;2.30;;;;;;;7.38;64.66;98836.66;5116549;27;20028;-39
2023/11/18 06:34:07;;;;;;;3.13;2.47;;;;;;;7.21;64.77;98849.47;5111571;28;20035;-39
2023/11/18 06:36:33;;;;;;;3.60;2.28;;;;;;;7.35;64.42;98845.81;5111084;28;20015;-39
2023/11/18 06:38:58;;;;;;;6.07;2.60;;;;;;;7.18;64.61;98860.47;5102520;28;20127;-39
2023/11/18 06:41:25;;;;;;;3.63;2.50;;;;;;;7.27;64.17;98840.72;5098878;28;20035;-43
2023/11/18 06:43:51;;;;;;;4.05;2.40;;;;;;;7.31;64.40;98849.06;5125251;28;20058;-41
2023/11/18 06:46:22;;;;;;;2.97;2.35;;;;;;;7.36;63.36;98852.72;5109766;28;20127;-38
2023/11/18 06:48:54;;;;;;;2.80;2.20;;;;;;;7.33;63.74;98842.56;5107785;28;20039;-43
2023/11/18 06:51:24;;;;;;;2.78;2.25;;;;;;;7.42;63.60;98841.34;5103189;28;20031;-41
2023/11/18 06:53:55;;;;;;;3.38;2.40;;;;;;;7.37;62.66;98843.78;5125922;28;20035;-39
2023/11/18 06:56:21;;;;;;;3.20;2.50;;;;;;;7.24;63.54;98843.78;5131790;28;20028;-37
2023/11/18 06:58:46;;;;;;;2.20;1.88;;;;;;;7.13;63.24;98853.13;5128503;28;20020;-36
2023/11/18 07:01:15;;;;;;;2.67;2.20;;;;;;;7.30;62.26;98865.97;5124343;28;20034;-40
2023/11/18 07:03:45;;;;;;;2.93;2.20;;;;;;;7.29;61.85;98886.34;5108435;28;20715;-40
2023/11/18 07:06:10;;;;;;;2.35;2.15;;;;;;;7.27;62.68;98867.19;5090676;28;20020;-40
2023/11/18 07:08:37;;;;;;;2.67;2.03;;;;;;;7.58;60.58;98874.53;5097274;28;20028;-39
2023/11/18 07:11:05;;;;;;;3.03;2.10;;;;;;;7.30;61.34;98855.41;5088398;28;20024;-40
2023/11/18 07:13:33;;;;;;;3.38;1.90;;;;;;;7.30;61.09;98853.56;5088468;28;20024;-40
2023/11/18 07:16:04;;;;;;;2.20;1.75;;;;;;;7.42;60.44;98865.16;5088449;28;20047;-41
2023/11/18 07:18:33;;;;;;;2.30;1.90;;;;;;;7.60;60.28;98866.38;5107893;28;20027;-40
2023/11/18 07:21:04;;;;;;;3.30;2.13;;;;;;;7.58;59.92;98857.81;5109861;28;20424;-39
2023/11/18 07:23:30;;;;;;;1.90;1.70;;;;;;;7.47;60.89;98855.81;5109525;28;20488;-41
2023/11/18 07:25:56;;;;;;;3.95;2.15;;;;;;;7.75;59.94;98853.72;5090444;28;20035;-39
2023/11/18 07:28:21;;;;;;;2.70;2.00;;;;;;;7.71;59.56;98851.69;5100509;28;20024;-40
2023/11/18 07:30:47;;;;;;;1.88;1.55;;;;;;;7.65;59.16;98850.66;5110963;28;20646;-38
2023/11/18 07:33:18;;;;;;;2.22;1.65;;;;;;;7.74;59.68;98861.88;5111106;28;20042;-41
2023/11/18 07:35:46;;;;;;;1.95;1.60;;;;;;;7.55;59.07;98834.41;5110668;28;20164;-38
2023/11/18 07:38:12;;;;;;;2.10;1.75;;;;;;;7.73;58.96;98839.03;5103668;28;20031;-40
2023/11/18 07:40:42;;;;;;;2.63;1.40;;;;;;;7.96;58.31;98844.72;5109218;28;20043;-41
2023/11/18 07:43:10;;;;;;;1.73;1.48;;;;;;;7.80;58.15;98845.94;5103086;28;20020;-41
2023/11/18 07:45:39;;;;;;;1.55;1.30;;;;;;;7.73;58.43;98845.16;5098580;28;20110;-38
2023/11/18 07:48:11;;;;;;;1.50;1.20;;;;;;;7.52;57.97;98827.69;5094331;28;20040;-39
2023/11/18 07:50:40;;;;;;;3.58;1.52;;;;;;;7.45;58.36;98845.41;5104069;28;20076;-41
2023/11/18 07:53:06;;;;;;;1.50;1.10;;;;;;;7.61;57.82;98844.97;5105350;28;20027;-39
2023/11/18 07:55:34;;;;;;;3.38;1.30;;;;;;;7.39;58.41;98843.59;5114574;28;20022;-37
2023/11/18 07:58:01;;;;;;;2.45;1.30;;;;;;;7.71;58.01;98823.38;5114068;28;20011;-39
2023/11/18 08:00:30;;;;;;;1.30;1.10;;;;;;;7.71;57.45;98841.91;5112952;28;20027;-39
2023/11/18 08:03:00;;;;;;;2.17;1.30;;;;;;;7.77;57.23;98816.44;5113257;28;20047;-40
2023/11/18 08:05:26;;;;;;;1.65;1.20;;;;;;;7.81;56.75;98838.84;5113513;28;20035;-41
2023/11/18 08:07:53;;;;;;;1.48;0.93;;;;;;;7.60;56.90;98834.59;5113332;28;20048;-40
2023/11/18 08:10:18;;;;;;;1.65;1.40;;;;;;;7.85;57.09;98857.78;5112570;28;20028;-41
2023/11/18 08:12:46;;;;;;;1.60;1.30;;;;;;;7.78;56.69;98848.00;5112776;28;20107;-40
2023/11/18 08:15:11;;;;;;;4.78;1.33;;;;;;;7.88;56.59;98849.41;5113163;28;20085;-40
2023/11/18 08:17:37;;;;;;;2.60;1.10;;;;;;;7.90;56.13;98836.75;5113056;28;20012;-39
2023/11/18 08:20:24;;;;;;;1.27;1.17;;;;;;;7.93;55.92;98841.66;5112824;28;20475;-41
2023/11/18 08:22:50;;;;;;;0.73;0.73;;;;;;;7.81;55.70;98839.66;5112961;28;20516;-41
2023/11/18 08:25:17;;;;;;;3.45;1.50;;;;;;;7.83;56.49;98850.84;5113182;28;20051;-40
2023/11/18 08:27:43;;;;;;;1.10;1.00;;;;;;;7.99;55.73;98852.22;5112998;28;20057;-42
2023/11/18 08:30:11;;;;;;;1.77;0.90;;;;;;;8.05;55.48;98855.06;5113989;28;20360;-42
2023/11/18 08:32:38;;;;;;;3.22;1.10;;;;;;;8.12;55.23;98840.78;5114005;28;20076;-40
2023/11/18 08:35:07;;;;;;;1.40;1.08;;;;;;;8.06;55.98;98854.88;5113913;28;20028;-41
2023/11/18 08:37:35;;;;;;;1.57;1.10;;;;;;;8.00;55.43;98848.56;5113552;28;20016;-40
2023/11/18 08:40:06;;;;;;;3.72;1.02;;;;;;;8.14;55.51;98849.31;5113852;28;20047;-38
2023/11/18 08:42:33;;;;;;;3.03;1.17;;;;;;;8.24;54.84;98870.09;5113605;28;20451;-40
2023/11/18 08:45:00;;;;;;;1.70;1.10;;;;;;;8.12;55.55;98854.03;5113407;28;20572;-40
2023/11/18 08:47:27;;;;;;;1.33;0.90;;;;;;;8.29;54.94;98866.81;5112968;28;20054;-37
2023/11/18 08:49:55;;;;;;;1.70;1.10;;;;;;;8.61;54.14;98873.03;5113335;28;20047;-42
2023/11/18 08:52:20;;;;;;;1.10;1.00;;;;;;;8.38;55.45;98878.81;5113166;28;20036;-40
2023/11/18 08:57:48;;;;;;;1.67;1.20;;;;;;;8.74;54.20;98848.28;5081899;28;20027;-41
2023/11/18 09:03:01;;;;;;;1.08;0.90;;;;;;;8.35;53.93;98832.31;5113530;28;20108;-40
2023/11/18 09:05:29;;;;;;;3.58;1.17;;;;;;;8.55;53.69;98840.22;5112719;28;20026;-41
2023/11/18 09:07:57;;;;;;;1.92;0.98;;;;;;;8.82;52.81;98833.97;5113184;28;20031;-43
2023/11/18 09:10:23;;;;;;;2.03;1.05;;;;;;;8.50;53.16;98841.88;5111995;28;20035;-37
2023/11/18 09:12:49;;;;;;;4.32;1.20;;;;;;;8.26;53.01;98830.94;5112823;28;20448;-38
2023/11/18 09:15:22;;;;;;;1.88;0.82;;;;;;;8.38;53.16;98831.09;5113001;27;20058;-39
2023/11/18 09:17:48;;;;;;;3.80;1.23;;;;;;;8.80;52.47;98824.34;5113662;28;20456;-41
2023/11/18 09:20:17;;;;;;;6.72;1.00;;;;;;;8.52;52.77;98826.56;5113218;28;20021;-42
2023/11/18 09:22:43;;;;;;;1.45;1.05;;;;;;;8.40;52.95;98829.06;5112817;28;20016;-42
2023/11/18 09:25:10;;;;;;;1.00;0.90;;;;;;;8.28;53.08;98842.16;5112009;28;20024;-40
2023/11/18 09:27:36;;;;;;;0.60;0.60;;;;;;;8.30;53.13;98818.91;5112464;28;20077;-42
2023/11/18 09:30:13;;;;;;;2.40;1.20;;;;;;;8.18;52.96;98825.88;5112043;28;20036;-43
2023/11/18 09:32:42;;;;;;;1.17;1.00;;;;;;;8.67;52.85;98823.63;5112107;28;20410;-41
2023/11/18 09:35:12;;;;;;;4.30;0.97;;;;;;;8.59;53.43;98822.84;5112432;28;20043;-41
2023/11/18 09:37:38;;;;;;;2.42;0.98;;;;;;;8.78;52.74;98807.03;5112731;28;20323;-41
2023/11/18 09:40:11;;;;;;;1.30;1.08;;;;;;;8.80;52.15;98807.63;5112278;28;20084;-43
2023/11/18 09:42:38;;;;;;;3.90;1.02;;;;;;;8.73;53.23;98796.25;5112247;28;20103;-39
2023/11/18 09:45:05;;;;;;;1.90;1.08;;;;;;;8.74;52.00;98805.84;5112470;28;20024;-41
2023/11/18 09:47:39;;;;;;;1.13;0.80;;;;;;;8.58;52.21;98802.66;5111810;28;20039;-42
2023/11/18 09:50:09;;;;;;;3.35;1.05;;;;;;;8.41;53.62;98785.59;5112300;28;20039;-42
2023/11/18 09:52:41;;;;;;;3.15;1.10;;;;;;;8.57;52.94;98777.16;5112147;28;20023;-42
2023/11/18 09:55:23;;;;;;;3.47;1.10;;;;;;;8.64;52.27;98789.56;5112413;28;20023;-41
2023/11/18 09:57:57;;;;;;;1.58;1.10;;;;;;;8.47;53.25;98802.53;5111941;28;20020;-42
2023/11/18 10:00:26;;;;;;;3.28;0.90;;;;;;;8.30;53.23;98783.59;5112060;28;20093;-40
2023/11/18 10:02:55;;;;;;;2.60;1.15;;;;;;;8.66;52.25;98777.72;5112222;28;20023;-40
2023/11/18 10:05:22;;;;;;;1.98;1.10;;;;;;;8.73;52.19;98789.09;5112300;28;20089;-38
2023/11/18 10:07:48;;;;;;;1.25;0.80;;;;;;;8.59;53.07;98795.53;5111910;28;20019;-41
2023/11/18 10:10:16;;;;;;;2.05;0.80;;;;;;;8.55;52.99;98787.19;5111972;28;20023;-43
2023/11/18 10:12:52;;;;;;;0.80;0.80;;;;;;;8.45;52.36;98778.06;5111931;28;20028;-42
2023/11/18 10:15:23;;;;;;;1.98;1.10;;;;;;;8.58;52.21;98805.31;5111744;28;20027;-41
2023/11/18 10:17:57;;;;;;;3.10;1.00;;;;;;;8.60;51.81;98779.41;5111727;28;20024;-40
2023/11/18 10:20:41;;;;;;;4.38;1.00;;;;;;;8.55;51.80;98783.72;5111484;28;20034;-40
2023/11/18 10:23:11;;;;;;;1.73;1.10;;;;;;;8.97;51.75;98798.13;5111861;28;20104;-40
2023/11/18 10:25:42;;;;;;;1.58;1.05;;;;;;;8.88;51.61;98794.09;5111688;28;20522;-41
2023/11/18 10:28:10;;;;;;;7.25;1.10;;;;;;;9.15;51.26;98776.09;5111548;28;20081;-41
2023/11/18 10:30:46;;;;;;;3.60;0.82;;;;;;;8.81;51.78;98780.06;5111477;28;20032;-40
2023/11/18 10:33:16;;;;;;;1.10;0.85;;;;;;;8.90;51.71;98770.81;5093261;28;20491;-43
2023/11/18 10:35:52;;;;;;;3.85;1.20;;;;;;;9.06;51.86;98774.75;5111387;28;20556;-39
2023/11/18 10:38:18;;;;;;;1.75;1.00;;;;;;;9.34;51.26;98760.22;5111180;28;20019;-45
2023/11/18 10:40:43;;;;;;;1.10;0.90;;;;;;;9.38;51.48;98756.91;5112315;28;20019;-40
2023/11/18 10:43:10;;;;;;;2.83;1.48;;;;;;;9.67;50.38;98735.16;5112060;28;20022;-36
2023/11/18 10:45:41;;;;;;;3.47;1.10;;;;;;;9.50;49.98;98737.59;5112301;28;20421;-40
2023/11/18 10:48:06;;;;;;;2.03;0.90;;;;;;;9.71;49.57;98761.06;5112195;28;20039;-41
2023/11/18 10:50:32;;;;;;;3.33;1.00;;;;;;;9.30;49.79;98746.56;5111942;28;20383;-40
2023/11/18 10:53:00;;;;;;;2.65;1.00;;;;;;;9.44;50.03;98751.75;5111495;28;20024;-40
2023/11/18 10:55:40;;;;;;;1.60;1.10;;;;;;;9.49;49.55;98767.84;5111048;28;20030;-43
2023/11/18 10:58:07;;;;;;;5.35;1.17;;;;;;;9.54;49.45;98750.22;5092775;28;20012;-41
2023/11/18 11:00:55;;;;;;;1.60;1.00;;;;;;;9.70;49.56;98751.47;5093189;28;20519;-39
2023/11/18 11:03:23;;;;;;;2.75;1.17;;;;;;;9.76;48.71;98768.38;5111133;28;20526;-38
2023/11/18 11:05:50;;;;;;;3.55;0.93;;;;;;;10.23;48.69;98760.63;5111132;28;20020;-39
2023/11/18 11:08:18;;;;;;;1.13;0.90;;;;;;;10.21;48.36;98754.75;5111369;28;20024;-39
2023/11/18 11:10:44;;;;;;;1.35;0.82;;;;;;;10.01;48.53;98762.97;5111199;28;20519;-39
2023/11/18 11:13:11;;;;;;;4.22;1.40;;;;;;;9.86;48.54;98773.16;5111624;28;20115;-43
2023/11/18 11:15:49;;;;;;;2.22;1.15;;;;;;;9.72;48.82;98767.19;5111322;28;20023;-38
2023/11/18 11:18:23;;;;;;;2.55;1.15;;;;;;;9.34;49.76;98768.19;5111065;28;20496;-44
2023/11/18 11:21:04;;;;;;;3.35;1.02;;;;;;;9.68;48.99;98766.81;5111502;28;20077;-41
2023/11/18 11:23:55;;;;;;;2.15;0.82;;;;;;;9.55;48.58;98775.72;5114109;28;20031;-42
2023/11/18 11:26:42;;;;;;;;;;;;;;;9.36;48.74;98764.28;5115750;28;20034;-40
2023/11/18 11:29:30;;;;;;;1.25;1.00;;;;;;;9.37;49.23;98770.41;5114719;28;20370;-41
2023/11/18 11:32:18;;;;;;;2.08;1.08;;;;;;;9.39;49.46;98785.09;5114634;28;20501;-37
2023/11/18 11:34:53;;;;;;;1.20;1.10;;;;;;;9.45;49.68;98771.97;5114573;28;20019;-40
2023/11/18 11:37:22;;;;;;;3.63;1.20;;;;;;;9.43;49.32;98782.00;5115214;28;20027;-43
2023/11/18 11:39:51;;;;;;;5.03;1.08;;;;;;;9.42;49.39;98778.53;5114713;28;20027;-38
2023/11/18 11:42:20;;;;;;;3.03;0.80;;;;;;;9.43;48.56;98780.16;5114878;28;20122;-42
2023/11/18 11:44:47;;;;;;;;;;;;;;;9.26;49.55;98758.66;5115292;28;20098;-40
2023/11/18 11:47:15;;;;;;;3.40;0.85;;;;;;;8.92;49.57;98782.03;5114730;28;20288;-39
2023/11/18 11:50:13;;;;;;;2.97;1.20;;;;;;;9.41;49.18;98778.75;5114637;28;20051;-41
2023/11/18 11:52:47;;;;;;;1.60;0.90;;;;;;;9.37;48.34;98773.88;5114881;28;20107;-42